Time;durP1;ratioP1;P1;durP2;ratioP2;P2;SDS_P1;SDS_P2;PMS_P1;PMS_P2;Temp;Humidity;BMP_temperature;BMP_pressure;BME280_temperature;BME280_humidity;BME280_pressure;Samples;Min_cycle;Max_cycle;Signal;HPM_P1;HPM_P2
2024/01/28 00:01:36;;;;;;;25.17;9.48;;;2.10;99.90;;;;;;5024123;28;20161;-66
2024/01/28 00:04:02;;;;;;;25.70;8.13;;;2.10;99.90;;;;;;5006006;28;20406;-66
2024/01/28 00:06:28;;;;;;;29.42;9.38;;;2.10;99.90;;;;;;5023798;28;20041;-67
2024/01/28 00:08:54;;;;;;;29.52;9.27;;;2.00;99.90;;;;;;5007176;28;20451;-66
2024/01/28 00:11:19;;;;;;;30.15;8.95;;;2.10;99.90;;;;;;5025596;28;20045;-66
2024/01/28 00:13:45;;;;;;;24.38;9.00;;;2.10;99.90;;;;;;5023509;28;20056;-66
2024/01/28 00:16:19;;;;;;;21.52;8.70;;;2.10;99.90;;;;;;5023903;28;20057;-65
2024/01/28 00:18:45;;;;;;;23.33;8.23;;;2.00;99.90;;;;;;5022880;28;20049;-66
2024/01/28 00:21:11;;;;;;;25.52;9.45;;;2.00;99.90;;;;;;5023794;28;20048;-65
2024/01/28 00:23:36;;;;;;;19.83;7.78;;;1.90;99.90;;;;;;5006185;28;20566;-66
2024/01/28 00:26:02;;;;;;;25.23;9.30;;;1.90;99.90;;;;;;5023114;28;20411;-66
2024/01/28 00:28:28;;;;;;;22.83;8.98;;;1.90;99.90;;;;;;5022605;28;20223;-66
2024/01/28 00:30:55;;;;;;;24.05;8.68;;;1.90;99.90;;;;;;5023688;28;20049;-66
2024/01/28 00:33:21;;;;;;;26.08;8.82;;;1.90;99.90;;;;;;5024389;28;20180;-66
2024/01/28 00:35:47;;;;;;;20.60;8.25;;;1.90;99.90;;;;;;5023770;28;20071;-66
2024/01/28 00:38:12;;;;;;;25.00;7.97;;;2.00;99.90;;;;;;5004489;28;20426;-66
2024/01/28 00:40:38;;;;;;;27.00;9.27;;;1.90;99.90;;;;;;5040530;28;20057;-66
2024/01/28 00:43:05;;;;;;;32.50;8.50;;;1.80;99.90;;;;;;5023532;28;20054;-66
2024/01/28 00:45:31;;;;;;;25.95;8.57;;;1.80;99.90;;;;;;5023552;28;20042;-66
2024/01/28 00:47:58;;;;;;;24.75;9.18;;;1.70;99.90;;;;;;5047777;28;20046;-66
2024/01/28 00:50:24;;;;;;;25.85;8.63;;;1.80;99.90;;;;;;5007218;28;20042;-66
2024/01/28 00:52:53;;;;;;;25.30;8.63;;;1.80;99.90;;;;;;5023144;28;20049;-66
2024/01/28 00:55:19;;;;;;;27.38;8.18;;;1.80;99.90;;;;;;5007445;28;20041;-65
2024/01/28 00:57:44;;;;;;;20.98;7.85;;;1.70;99.90;;;;;;5022774;28;20060;-65
2024/01/28 01:00:10;;;;;;;23.77;8.77;;;1.70;99.90;;;;;;5024139;28;20053;-66
2024/01/28 01:02:36;;;;;;;26.65;9.57;;;1.70;99.90;;;;;;5006810;28;20057;-65
2024/01/28 01:05:02;;;;;;;25.83;9.65;;;1.70;99.90;;;;;;5005222;28;20056;-66
2024/01/28 01:07:28;;;;;;;25.60;9.13;;;1.60;99.90;;;;;;5021398;28;20097;-66
2024/01/28 01:09:54;;;;;;;27.13;8.95;;;1.70;99.90;;;;;;5021752;28;20068;-66
2024/01/28 01:12:20;;;;;;;24.35;7.35;;;1.60;99.90;;;;;;5021376;28;20049;-65
2024/01/28 01:14:46;;;;;;;27.88;9.25;;;1.60;99.90;;;;;;5023745;28;20567;-66
2024/01/28 01:17:12;;;;;;;25.00;8.63;;;1.60;99.90;;;;;;5021864;28;20044;-65
2024/01/28 01:19:37;;;;;;;20.77;8.63;;;1.60;99.90;;;;;;5022240;28;20053;-65
2024/01/28 01:22:03;;;;;;;32.45;8.23;;;1.60;99.90;;;;;;5022468;28;20064;-66
2024/01/28 01:24:29;;;;;;;20.63;8.68;;;1.60;99.90;;;;;;5021345;28;20053;-65
2024/01/28 01:26:55;;;;;;;21.92;8.00;;;1.80;99.90;;;;;;5005057;28;20038;-65
2024/01/28 01:29:21;;;;;;;21.23;8.60;;;1.60;99.90;;;;;;5021381;28;20095;-65
2024/01/28 01:31:47;;;;;;;24.52;9.20;;;1.90;99.90;;;;;;5018492;28;20574;-66
2024/01/28 01:34:13;;;;;;;17.40;8.25;;;1.60;99.90;;;;;;5004449;28;20046;-66
2024/01/28 01:36:43;;;;;;;22.80;8.00;;;1.60;99.90;;;;;;5004874;28;20088;-66
2024/01/28 01:39:09;;;;;;;26.25;8.38;;;1.80;99.90;;;;;;5021157;28;20042;-66
2024/01/28 01:41:34;;;;;;;24.38;8.23;;;1.60;99.90;;;;;;5020711;28;20045;-67
2024/01/28 01:44:00;;;;;;;23.48;8.32;;;1.90;99.90;;;;;;5021026;28;20053;-66
2024/01/28 01:46:27;;;;;;;32.95;9.13;;;1.60;99.90;;;;;;5004633;28;20051;-66
2024/01/28 01:48:53;;;;;;;19.65;7.80;;;1.60;99.90;;;;;;5019595;28;20160;-66
2024/01/28 01:51:20;;;;;;;18.88;8.45;;;1.60;99.90;;;;;;5020755;28;20041;-66
2024/01/28 01:53:46;;;;;;;26.23;8.00;;;1.60;99.90;;;;;;5004274;28;20768;-66
2024/01/28 01:56:12;;;;;;;23.00;8.48;;;1.60;99.90;;;;;;5020512;28;20045;-66
2024/01/28 01:58:38;;;;;;;26.55;8.10;;;1.60;99.90;;;;;;5003503;28;20136;-66
2024/01/28 02:01:04;;;;;;;23.17;8.15;;;2.10;99.90;;;;;;5003131;28;20045;-66
2024/01/28 02:03:30;;;;;;;23.00;8.32;;;1.60;99.90;;;;;;4999328;28;20041;-66
2024/01/28 02:05:56;;;;;;;26.48;7.93;;;1.60;99.90;;;;;;5019898;28;20095;-66
2024/01/28 02:08:22;;;;;;;24.77;8.45;;;1.60;99.90;;;;;;5003179;28;20057;-66
2024/01/28 02:10:47;;;;;;;20.20;7.63;;;1.70;99.90;;;;;;5019950;28;20048;-66
2024/01/28 02:13:13;;;;;;;19.80;7.82;;;1.60;99.90;;;;;;5020563;28;20585;-68
2024/01/28 02:15:39;;;;;;;24.45;8.85;;;2.30;99.90;;;;;;5020421;28;20538;-67
2024/01/28 02:18:05;;;;;;;27.02;8.15;;;1.70;99.90;;;;;;5019774;28;20041;-67
2024/01/28 02:20:31;;;;;;;24.10;8.50;;;1.60;99.90;;;;;;5019911;28;20048;-67
2024/01/28 02:22:57;;;;;;;20.92;7.55;;;1.60;99.90;;;;;;5020434;28;20414;-67
2024/01/28 02:25:23;;;;;;;26.05;8.20;;;1.60;99.90;;;;;;5000801;28;20125;-66
2024/01/28 02:27:49;;;;;;;19.45;7.40;;;1.60;99.90;;;;;;5020011;28;20145;-66
2024/01/28 02:30:15;;;;;;;21.55;7.65;;;1.60;99.90;;;;;;5020276;28;20486;-66
2024/01/28 02:32:52;;;;;;;23.67;7.68;;;1.60;99.90;;;;;;5002661;28;20395;-66
2024/01/28 02:35:19;;;;;;;23.33;7.75;;;2.00;99.90;;;;;;5003184;28;20053;-67
2024/01/28 02:37:44;;;;;;;20.42;8.18;;;1.60;99.90;;;;;;5020501;28;20161;-66
2024/01/28 02:40:11;;;;;;;24.17;7.82;;;1.60;99.90;;;;;;5019956;28;20333;-66
2024/01/28 02:42:37;;;;;;;18.88;6.57;;;1.60;99.90;;;;;;5020164;28;20089;-66
2024/01/28 02:45:03;;;;;;;21.20;7.38;;;1.60;99.90;;;;;;5019489;28;20128;-66
2024/01/28 02:47:28;;;;;;;23.33;7.68;;;1.60;99.90;;;;;;5021121;28;20060;-65
2024/01/28 02:49:54;;;;;;;20.20;6.95;;;1.60;99.90;;;;;;5003700;28;20049;-65
2024/01/28 02:52:20;;;;;;;20.92;7.57;;;1.60;99.90;;;;;;5020006;28;20046;-66
2024/01/28 02:54:46;;;;;;;28.88;9.10;;;1.60;99.90;;;;;;5019211;28;20049;-66
2024/01/28 02:57:12;;;;;;;29.25;8.27;;;1.60;99.90;;;;;;5020754;28;20049;-66
2024/01/28 02:59:37;;;;;;;23.52;8.38;;;1.60;99.90;;;;;;5019561;28;20508;-65
2024/01/28 03:02:03;;;;;;;26.13;9.85;;;1.80;99.90;;;;;;5020518;28;20398;-65
2024/01/28 03:04:29;;;;;;;31.05;10.48;;;1.70;99.90;;;;;;5017159;28;20045;-65
2024/01/28 03:06:55;;;;;;;20.27;9.90;;;1.80;99.90;;;;;;5019850;28;20046;-66
2024/01/28 03:09:24;;;;;;;27.35;9.55;;;1.70;99.90;;;;;;5021305;28;20164;-65
2024/01/28 03:11:53;;;;;;;27.50;10.20;;;1.70;99.90;;;;;;5021566;28;20655;-67
2024/01/28 03:14:19;;;;;;;26.45;9.88;;;1.70;99.90;;;;;;5003300;28;20042;-67
2024/01/28 03:16:46;;;;;;;25.60;10.02;;;1.80;99.90;;;;;;5020222;28;20056;-67
2024/01/28 03:19:12;;;;;;;27.13;10.50;;;1.80;99.90;;;;;;5037626;28;20107;-69
2024/01/28 03:21:38;;;;;;;26.98;9.90;;;2.50;99.90;;;;;;5018849;28;20041;-67
2024/01/28 03:24:04;;;;;;;20.35;9.27;;;1.80;99.90;;;;;;5001601;28;20044;-67
2024/01/28 03:26:30;;;;;;;30.88;10.18;;;1.80;99.90;;;;;;5018828;28;20061;-68
2024/01/28 03:28:56;;;;;;;29.58;10.07;;;1.90;99.90;;;;;;5019960;28;20045;-67
2024/01/28 03:31:22;;;;;;;24.50;9.80;;;1.90;99.90;;;;;;5020123;28;20049;-67
2024/01/28 03:33:47;;;;;;;27.15;10.23;;;1.90;99.90;;;;;;5019433;28;20088;-66
2024/01/28 03:36:13;;;;;;;24.38;10.80;;;2.90;99.90;;;;;;5018837;28;20049;-69
2024/01/28 03:38:39;;;;;;;23.38;9.68;;;1.80;99.90;;;;;;5019723;28;20075;-66
2024/01/28 03:41:05;;;;;;;28.92;10.32;;;1.90;99.90;;;;;;5005458;28;20046;-66
2024/01/28 03:43:31;;;;;;;24.67;9.77;;;1.90;99.90;;;;;;5021881;28;20080;-66
2024/01/28 03:45:57;;;;;;;26.38;9.32;;;1.90;99.90;;;;;;5024696;28;20522;-67
2024/01/28 03:48:22;;;;;;;23.25;9.30;;;1.90;99.90;;;;;;5024432;28;20053;-67
2024/01/28 03:50:48;;;;;;;29.73;10.20;;;1.90;99.90;;;;;;5024839;28;20051;-67
2024/01/28 03:53:14;;;;;;;22.75;9.35;;;1.90;99.90;;;;;;5023981;28;20045;-66
2024/01/28 03:55:40;;;;;;;20.85;9.52;;;1.90;99.90;;;;;;5024693;28;20080;-65
2024/01/28 03:58:05;;;;;;;24.45;9.52;;;1.90;99.90;;;;;;5022493;28;20041;-65
2024/01/28 04:00:31;;;;;;;26.20;8.68;;;1.90;99.90;;;;;;5023274;28;20045;-66
2024/01/28 04:02:57;;;;;;;24.73;9.00;;;1.90;99.90;;;;;;5023699;28;20048;-65
2024/01/28 04:05:23;;;;;;;19.00;8.68;;;2.00;99.90;;;;;;5005878;28;20088;-67
2024/01/28 04:07:49;;;;;;;18.02;8.55;;;1.90;99.90;;;;;;5022004;28;20155;-66
2024/01/28 04:10:16;;;;;;;20.00;8.35;;;2.10;99.90;;;;;;5022898;28;20045;-66
2024/01/28 04:12:42;;;;;;;24.35;7.70;;;3.00;99.90;;;;;;5022701;28;20053;-66
2024/01/28 04:15:08;;;;;;;27.65;8.25;;;1.90;99.90;;;;;;5023172;28;20037;-66
2024/01/28 04:17:34;;;;;;;21.88;7.82;;;1.90;99.90;;;;;;5005460;28;20056;-66
2024/01/28 04:20:00;;;;;;;23.75;8.45;;;1.90;99.90;;;;;;5022534;28;20117;-66
2024/01/28 04:22:26;;;;;;;26.83;8.52;;;1.90;99.90;;;;;;5023233;28;20073;-65
2024/01/28 04:24:52;;;;;;;21.38;8.85;;;1.90;99.90;;;;;;5023811;28;20148;-67
2024/01/28 04:27:18;;;;;;;22.05;8.32;;;1.90;99.90;;;;;;5024085;28;20041;-66
2024/01/28 04:29:44;;;;;;;19.70;7.63;;;1.90;99.90;;;;;;5023906;28;20049;-66
2024/01/28 04:32:10;;;;;;;23.73;8.57;;;1.90;99.90;;;;;;5023475;28;20041;-66
2024/01/28 04:34:36;;;;;;;23.83;8.07;;;1.80;99.90;;;;;;5024654;28;20140;-65
2024/01/28 04:37:02;;;;;;;18.25;7.70;;;1.90;99.90;;;;;;5024140;28;20034;-66
2024/01/28 04:39:28;;;;;;;21.27;8.75;;;1.90;99.90;;;;;;5023243;28;20120;-66
2024/01/28 04:41:53;;;;;;;27.00;8.63;;;1.80;99.90;;;;;;5022602;28;20136;-66
2024/01/28 04:44:22;;;;;;;20.35;8.95;;;1.80;99.90;;;;;;5023513;28;20037;-66
2024/01/28 04:46:48;;;;;;;27.88;8.65;;;2.20;99.90;;;;;;5023967;28;20800;-67
2024/01/28 04:49:14;;;;;;;26.52;9.32;;;1.80;99.90;;;;;;5016601;28;20599;-67
2024/01/28 04:51:41;;;;;;;22.30;8.60;;;1.80;99.90;;;;;;5023243;28;20049;-67
2024/01/28 04:54:06;;;;;;;23.20;9.10;;;1.80;99.90;;;;;;5021792;28;20049;-66
2024/01/28 04:56:32;;;;;;;23.67;8.65;;;1.70;99.90;;;;;;5020361;28;20564;-67
2024/01/28 04:58:58;;;;;;;20.90;7.88;;;1.70;99.90;;;;;;5022315;28;20053;-66
2024/01/28 05:01:24;;;;;;;19.95;9.65;;;1.70;99.90;;;;;;5023818;28;20045;-66
2024/01/28 05:03:50;;;;;;;21.63;9.52;;;1.90;99.90;;;;;;5021864;28;20513;-67
2024/01/28 05:06:15;;;;;;;25.10;8.25;;;1.70;99.90;;;;;;5021130;28;20119;-66
2024/01/28 05:08:41;;;;;;;21.92;8.50;;;1.70;99.90;;;;;;5022121;28;20045;-68
2024/01/28 05:11:07;;;;;;;24.83;8.93;;;1.70;99.90;;;;;;5021663;28;20073;-67
2024/01/28 05:13:33;;;;;;;27.05;8.35;;;1.70;99.90;;;;;;5020924;28;20045;-67
2024/01/28 05:15:58;;;;;;;19.50;8.38;;;1.70;99.90;;;;;;5021644;28;20060;-67
2024/01/28 05:18:24;;;;;;;23.02;8.52;;;2.00;99.90;;;;;;5020066;28;20519;-67
2024/01/28 05:20:51;;;;;;;24.23;8.70;;;1.70;99.90;;;;;;5020427;28;20049;-67
2024/01/28 05:23:17;;;;;;;19.08;8.73;;;1.70;99.90;;;;;;5022194;28;20124;-66
2024/01/28 05:25:43;;;;;;;23.92;8.95;;;1.70;99.90;;;;;;5021521;28;20160;-67
2024/01/28 05:28:09;;;;;;;23.08;8.68;;;1.60;99.90;;;;;;5023311;28;20053;-65
2024/01/28 05:30:35;;;;;;;22.98;8.55;;;1.60;99.90;;;;;;5020701;28;20159;-65
2024/01/28 05:33:00;;;;;;;21.13;8.50;;;1.60;99.90;;;;;;5005085;28;20599;-65
2024/01/28 05:35:26;;;;;;;21.75;7.85;;;1.60;99.90;;;;;;5037231;28;20081;-65
2024/01/28 05:37:52;;;;;;;19.70;8.07;;;1.60;99.90;;;;;;5020257;28;20052;-65
2024/01/28 05:40:19;;;;;;;23.35;9.07;;;1.60;99.90;;;;;;5020586;28;20458;-65
2024/01/28 05:42:45;;;;;;;25.80;9.73;;;1.50;99.90;;;;;;5022534;28;20045;-65
2024/01/28 05:45:11;;;;;;;22.60;8.15;;;1.50;99.90;;;;;;5020356;28;20251;-65
2024/01/28 05:47:36;;;;;;;17.15;8.65;;;1.50;99.90;;;;;;5018723;28;20060;-64
2024/01/28 05:50:02;;;;;;;27.60;8.55;;;1.50;99.90;;;;;;5020918;28;20607;-64
2024/01/28 05:52:28;;;;;;;22.40;7.90;;;1.50;99.90;;;;;;5021200;28;20052;-65
2024/01/28 05:54:54;;;;;;;22.83;8.98;;;1.50;99.90;;;;;;5018074;28;20041;-65
2024/01/28 05:57:23;;;;;;;24.63;9.45;;;1.50;99.90;;;;;;5004906;28;20496;-65
2024/01/28 05:59:49;;;;;;;24.63;8.82;;;1.40;99.90;;;;;;5023418;28;20140;-64
2024/01/28 06:02:15;;;;;;;25.83;9.00;;;1.40;99.90;;;;;;5022965;28;20461;-65
2024/01/28 06:04:40;;;;;;;23.88;8.23;;;1.40;99.90;;;;;;5020769;28;20045;-65
2024/01/28 06:07:06;;;;;;;17.67;8.18;;;1.40;99.90;;;;;;5001244;28;20099;-65
2024/01/28 06:09:32;;;;;;;20.23;8.15;;;1.40;99.90;;;;;;5016361;28;20041;-65
2024/01/28 06:11:57;;;;;;;23.55;8.77;;;1.30;99.90;;;;;;5021573;28;20132;-65
2024/01/28 06:14:24;;;;;;;24.42;8.80;;;1.30;99.90;;;;;;5019950;28;20045;-65
2024/01/28 06:16:49;;;;;;;27.98;9.45;;;1.30;99.90;;;;;;5020555;28;20037;-65
2024/01/28 06:19:15;;;;;;;18.70;8.60;;;0.50;99.90;;;;;;5020171;28;20107;-65
2024/01/28 06:21:41;;;;;;;26.05;8.82;;;1.70;99.90;;;;;;5019176;28;20045;-65
2024/01/28 06:24:07;;;;;;;25.95;8.30;;;1.20;99.90;;;;;;5020322;28;20114;-65
2024/01/28 06:26:36;;;;;;;20.83;8.90;;;1.20;99.90;;;;;;5003910;28;20050;-65
2024/01/28 06:29:02;;;;;;;22.67;8.63;;;1.20;99.90;;;;;;5004209;28;20045;-65
2024/01/28 06:31:27;;;;;;;21.83;8.55;;;1.70;99.90;;;;;;5020870;28;20045;-65
2024/01/28 06:33:53;;;;;;;21.33;7.93;;;1.20;99.90;;;;;;5002967;28;20513;-65
2024/01/28 06:36:22;;;;;;;18.80;8.20;;;1.20;99.90;;;;;;5020708;28;20038;-65
2024/01/28 06:38:48;;;;;;;28.75;8.45;;;1.20;99.90;;;;;;5019879;28;20044;-65
2024/01/28 06:41:15;;;;;;;20.65;9.07;;;1.50;99.90;;;;;;5020889;28;20518;-65
2024/01/28 06:43:41;;;;;;;19.00;8.15;;;1.10;99.90;;;;;;5002900;28;20140;-65
2024/01/28 06:46:07;;;;;;;18.60;8.02;;;1.10;99.90;;;;;;5016797;28;20116;-65
2024/01/28 06:48:32;;;;;;;22.33;7.82;;;1.10;99.90;;;;;;5014117;28;20073;-65
2024/01/28 06:50:58;;;;;;;19.20;8.45;;;1.10;99.90;;;;;;5021191;28;20042;-65
2024/01/28 06:53:24;;;;;;;21.48;8.45;;;2.10;99.90;;;;;;5019186;28;20061;-65
2024/01/28 06:55:53;;;;;;;25.58;8.80;;;1.10;99.90;;;;;;5016024;28;20041;-65
2024/01/28 06:58:19;;;;;;;21.92;8.48;;;1.10;99.90;;;;;;5018214;28;20053;-65
2024/01/28 07:00:45;;;;;;;20.85;8.18;;;1.10;99.90;;;;;;5019447;28;20734;-65
2024/01/28 07:03:10;;;;;;;22.02;8.25;;;1.00;99.90;;;;;;5019868;28;20103;-65
2024/01/28 07:05:36;;;;;;;19.90;8.95;;;1.00;99.90;;;;;;5019917;28;20041;-65
2024/01/28 07:08:02;;;;;;;17.55;8.30;;;1.00;99.90;;;;;;5018572;28;20059;-65
2024/01/28 07:10:28;;;;;;;21.35;8.10;;;1.00;99.90;;;;;;5016732;28;20052;-65
2024/01/28 07:12:54;;;;;;;24.30;7.80;;;1.00;99.90;;;;;;5002318;28;20076;-65
2024/01/28 07:15:19;;;;;;;24.83;8.23;;;1.00;99.90;;;;;;5021118;28;20671;-65
2024/01/28 07:17:45;;;;;;;22.10;8.20;;;0.90;99.90;;;;;;5022793;28;20064;-65
2024/01/28 07:20:11;;;;;;;19.92;7.93;;;0.90;99.90;;;;;;5022580;28;20116;-65
2024/01/28 07:22:37;;;;;;;17.95;7.82;;;0.90;99.90;;;;;;5007244;28;20068;-65
2024/01/28 07:25:03;;;;;;;25.40;8.30;;;0.90;99.90;;;;;;5025197;28;20064;-65
2024/01/28 07:27:28;;;;;;;25.55;8.85;;;0.90;99.90;;;;;;5019526;28;20433;-65
2024/01/28 07:29:54;;;;;;;19.50;7.97;;;1.40;99.90;;;;;;5022140;28;20047;-65
2024/01/28 07:32:23;;;;;;;17.50;7.70;;;0.90;99.90;;;;;;5021698;28;20119;-66
2024/01/28 07:34:49;;;;;;;20.70;8.32;;;0.90;99.90;;;;;;5021377;28;20049;-65
2024/01/28 07:37:15;;;;;;;19.48;7.78;;;0.90;99.90;;;;;;5021797;28;20047;-65
2024/01/28 07:39:40;;;;;;;18.63;7.90;;;1.00;99.90;;;;;;5021977;28;20068;-65
2024/01/28 07:42:06;;;;;;;19.80;8.65;;;0.80;99.90;;;;;;5024221;28;20131;-65
2024/01/28 07:44:32;;;;;;;21.13;7.75;;;0.80;99.90;;;;;;5019722;28;20049;-65
2024/01/28 07:46:58;;;;;;;20.80;8.27;;;0.90;99.90;;;;;;5047987;28;20314;-65
2024/01/28 07:49:24;;;;;;;26.33;7.35;;;0.90;99.90;;;;;;5021694;28;20041;-65
2024/01/28 07:51:50;;;;;;;22.33;7.50;;;0.80;99.90;;;;;;5021960;28;20041;-65
2024/01/28 07:54:16;;;;;;;18.70;7.28;;;0.90;99.90;;;;;;5022849;28;20046;-65
2024/01/28 07:56:42;;;;;;;21.98;7.32;;;0.90;99.90;;;;;;5019797;28;20061;-66
2024/01/28 07:59:08;;;;;;;16.25;7.80;;;0.90;99.90;;;;;;5004454;28;20042;-65
2024/01/28 08:01:33;;;;;;;17.70;6.75;;;0.90;99.90;;;;;;5013487;28;20072;-65
2024/01/28 08:03:59;;;;;;;16.95;6.75;;;0.90;99.90;;;;;;5016759;28;20574;-66
2024/01/28 08:06:27;;;;;;;18.25;6.50;;;1.00;99.90;;;;;;5000043;28;20485;-65
2024/01/28 08:08:52;;;;;;;16.67;6.53;;;1.00;99.90;;;;;;5019207;28;20454;-65
2024/01/28 08:11:18;;;;;;;17.13;7.30;;;1.00;99.90;;;;;;5010997;28;20093;-66
2024/01/28 08:13:45;;;;;;;15.32;6.72;;;1.00;99.90;;;;;;5007751;28;20052;-66
2024/01/28 08:16:10;;;;;;;17.35;6.63;;;1.00;99.90;;;;;;5003369;28;20045;-66
2024/01/28 08:18:38;;;;;;;18.45;5.90;;;1.10;99.90;;;;;;4985747;28;20391;-65
2024/01/28 08:21:05;;;;;;;16.88;6.53;;;1.10;99.90;;;;;;4985874;28;20045;-65
2024/01/28 08:23:30;;;;;;;23.23;6.82;;;1.10;99.90;;;;;;5011028;28;20073;-64
2024/01/28 08:25:56;;;;;;;21.08;7.32;;;1.40;99.90;;;;;;5006087;28;20033;-63
2024/01/28 08:28:22;;;;;;;16.20;6.40;;;1.20;99.90;;;;;;5006194;28;20128;-62
2024/01/28 08:30:48;;;;;;;16.38;6.15;;;1.30;99.90;;;;;;5034454;28;20570;-63
2024/01/28 08:33:14;;;;;;;19.20;6.53;;;1.30;99.90;;;;;;5010173;28;20045;-64
2024/01/28 08:35:40;;;;;;;12.60;5.63;;;1.30;99.90;;;;;;5009123;28;20146;-65
2024/01/28 08:38:06;;;;;;;13.10;5.40;;;1.40;99.90;;;;;;5013845;28;20076;-64
2024/01/28 08:40:32;;;;;;;16.92;5.05;;;1.40;99.90;;;;;;5026413;28;20080;-65
2024/01/28 08:42:57;;;;;;;15.35;5.43;;;1.70;99.90;;;;;;5013255;28;20146;-65
2024/01/28 08:45:23;;;;;;;21.33;5.40;;;1.50;99.90;;;;;;5020763;28;20069;-65
2024/01/28 08:47:49;;;;;;;15.57;5.47;;;1.50;99.90;;;;;;5008729;28;20081;-65
2024/01/28 08:50:15;;;;;;;15.35;5.35;;;1.50;99.90;;;;;;5013348;28;20499;-65
2024/01/28 08:52:42;;;;;;;16.92;5.65;;;2.30;99.90;;;;;;5012530;28;20049;-65
2024/01/28 08:55:08;;;;;;;16.42;4.78;;;1.70;99.90;;;;;;4996922;28;20045;-65
2024/01/28 08:57:34;;;;;;;17.13;6.22;;;1.60;99.90;;;;;;5015538;28;20126;-65
2024/01/28 09:00:00;;;;;;;16.85;5.18;;;1.70;99.90;;;;;;5006574;28;20046;-65
2024/01/28 09:02:26;;;;;;;22.08;6.18;;;1.70;99.90;;;;;;5011104;28;20041;-66
2024/01/28 09:04:52;;;;;;;13.73;5.25;;;1.80;99.90;;;;;;5003928;28;20038;-66
2024/01/28 09:07:18;;;;;;;15.93;4.97;;;1.80;99.90;;;;;;4991384;28;20041;-65
2024/01/28 09:09:44;;;;;;;16.20;5.03;;;1.90;99.90;;;;;;5009011;28;20856;-65
2024/01/28 09:12:10;;;;;;;15.48;4.85;;;2.00;99.90;;;;;;4997897;28;20148;-66
2024/01/28 09:14:36;;;;;;;11.98;4.45;;;2.00;99.90;;;;;;5001487;28;20057;-66
2024/01/28 09:17:02;;;;;;;16.45;5.07;;;2.10;99.90;;;;;;5017098;28;20139;-66
2024/01/28 09:19:28;;;;;;;14.95;4.93;;;2.10;99.90;;;;;;5015917;28;20136;-67
2024/01/28 09:21:55;;;;;;;12.15;5.05;;;2.20;99.90;;;;;;5013359;28;20045;-67
2024/01/28 09:24:21;;;;;;;13.90;4.60;;;2.20;99.90;;;;;;5037749;28;20042;-67
2024/01/28 09:26:46;;;;;;;11.85;4.40;;;3.10;99.90;;;;;;5013262;28;20046;-67
2024/01/28 09:29:12;;;;;;;19.13;5.25;;;2.30;99.90;;;;;;5042401;28;20390;-69
2024/01/28 09:31:38;;;;;;;15.43;4.85;;;2.30;99.90;;;;;;5012252;28;20513;-66
2024/01/28 09:34:04;;;;;;;12.30;5.13;;;2.60;99.90;;;;;;5012693;28;20156;-67
2024/01/28 09:36:30;;;;;;;16.77;4.90;;;2.50;99.90;;;;;;5008673;28;20057;-66
2024/01/28 09:38:56;;;;;;;12.00;5.07;;;2.60;99.90;;;;;;5007088;28;20057;-65
2024/01/28 09:41:43;;;;;;;18.77;4.97;;;2.70;99.90;;;;;;4998696;28;20045;-65
2024/01/28 09:44:09;;;;;;;11.43;4.70;;;2.70;99.90;;;;;;4998493;28;20041;-65
2024/01/28 09:46:36;;;;;;;13.07;4.65;;;2.80;99.90;;;;;;5016193;28;20056;-65
2024/01/28 09:49:03;;;;;;;12.25;4.88;;;2.90;99.90;;;;;;5009820;28;20121;-66
2024/01/28 09:51:29;;;;;;;16.60;4.38;;;3.00;99.90;;;;;;5018446;28;20794;-65
2024/01/28 09:53:55;;;;;;;12.90;5.00;;;3.10;99.90;;;;;;5002109;28;20124;-64
2024/01/28 09:56:22;;;;;;;11.13;4.10;;;3.30;99.90;;;;;;5013292;28;20144;-65
2024/01/28 09:58:48;;;;;;;12.30;4.25;;;3.30;99.90;;;;;;5017256;28;20141;-65
2024/01/28 10:01:14;;;;;;;16.58;4.35;;;3.40;99.90;;;;;;5001444;28;20076;-65
2024/01/28 10:03:42;;;;;;;13.57;4.40;;;3.60;99.90;;;;;;5015004;28;20128;-65
2024/01/28 10:06:08;;;;;;;12.60;4.50;;;3.90;99.90;;;;;;5019396;28;20533;-65
2024/01/28 10:08:34;;;;;;;12.80;4.30;;;3.60;99.90;;;;;;5011714;28;20053;-65
2024/01/28 10:11:03;;;;;;;15.38;4.10;;;3.70;99.90;;;;;;5019582;28;20508;-66
2024/01/28 10:13:32;;;;;;;15.80;4.00;;;3.80;99.90;;;;;;5017663;28;20041;-65
2024/01/28 10:15:58;;;;;;;12.98;5.03;;;3.80;99.90;;;;;;5018394;28;20098;-65
2024/01/28 10:18:25;;;;;;;9.35;3.60;;;3.80;99.90;;;;;;5014804;28;20049;-65
2024/01/28 10:20:51;;;;;;;11.82;3.78;;;3.90;99.90;;;;;;5000195;28;20568;-65
2024/01/28 10:23:17;;;;;;;12.45;3.97;;;3.90;99.90;;;;;;5017866;28;20064;-65
2024/01/28 10:25:47;;;;;;;12.10;3.92;;;4.00;99.90;;;;;;5019205;28;20682;-65
2024/01/28 10:28:12;;;;;;;10.13;4.00;;;4.00;99.90;;;;;;5012056;28;20041;-66
2024/01/28 10:30:39;;;;;;;13.32;4.05;;;4.00;99.90;;;;;;5017379;28;20571;-66
2024/01/28 10:33:07;;;;;;;12.23;4.32;;;4.20;99.90;;;;;;5002522;28;20045;-65
2024/01/28 10:35:33;;;;;;;13.55;4.10;;;4.10;99.90;;;;;;5029769;28;20034;-65
2024/01/28 10:37:59;;;;;;;9.52;3.28;;;4.10;99.90;;;;;;5017170;28;20410;-65
2024/01/28 10:40:34;;;;;;;9.57;3.83;;;4.20;99.90;;;;;;5004833;28;20050;-65
2024/01/28 10:43:02;;;;;;;13.88;3.97;;;4.30;99.90;;;;;;5020152;28;20049;-65
2024/01/28 10:45:29;;;;;;;14.07;3.97;;;4.40;99.90;;;;;;5014071;28;21114;-65
2024/01/28 10:47:59;;;;;;;11.52;3.35;;;4.40;99.90;;;;;;5015204;28;20521;-65
2024/01/28 10:50:30;;;;;;;10.30;3.58;;;4.50;99.90;;;;;;5018723;28;20044;-65
2024/01/28 10:52:57;;;;;;;9.10;3.03;;;4.60;99.90;;;;;;4998077;28;20585;-65
2024/01/28 10:55:25;;;;;;;10.60;3.28;;;4.70;99.90;;;;;;5017844;28;20060;-65
2024/01/28 10:57:53;;;;;;;11.98;3.28;;;4.70;99.90;;;;;;5005534;28;20556;-66
2024/01/28 11:00:20;;;;;;;10.02;3.60;;;4.80;99.90;;;;;;5043064;28;20132;-65
2024/01/28 11:02:49;;;;;;;9.80;3.35;;;5.40;99.90;;;;;;5001601;28;20057;-65
2024/01/28 11:05:16;;;;;;;12.10;3.25;;;4.80;99.90;;;;;;5018460;28;20033;-65
2024/01/28 11:07:42;;;;;;;12.05;3.38;;;4.80;99.90;;;;;;5013974;28;20037;-65
2024/01/28 11:10:09;;;;;;;9.52;2.90;;;4.90;99.90;;;;;;5013020;28;20572;-66
2024/01/28 11:12:35;;;;;;;9.15;3.40;;;4.90;99.90;;;;;;5012718;28;20072;-66
2024/01/28 11:15:01;;;;;;;9.35;3.38;;;5.00;99.90;;;;;;5011676;28;20433;-65
2024/01/28 11:17:34;;;;;;;11.10;3.78;;;5.10;99.90;;;;;;5011072;28;20471;-66
2024/01/28 11:20:10;;;;;;;10.13;3.25;;;5.10;99.90;;;;;;5004660;28;20553;-66
2024/01/28 11:22:56;;;;;;;10.93;3.80;;;5.10;99.90;;;;;;5008816;28;20061;-67
2024/01/28 11:25:26;;;;;;;9.98;2.72;;;5.20;99.90;;;;;;5009090;28;20533;-65
2024/01/28 11:27:58;;;;;;;5.82;2.55;;;5.20;99.90;;;;;;5009258;28;20581;-64
2024/01/28 11:30:24;;;;;;;14.68;4.78;;;5.30;99.90;;;;;;5007094;28;20545;-65
2024/01/28 11:32:54;;;;;;;10.07;3.15;;;5.30;99.90;;;;;;5013060;28;20046;-65
2024/01/28 11:35:19;;;;;;;11.80;3.13;;;5.40;99.90;;;;;;5003197;28;20401;-67
2024/01/28 11:37:53;;;;;;;12.80;3.58;;;5.40;99.90;;;;;;4998658;28;20045;-67
2024/01/28 11:40:28;;;;;;;13.50;3.40;;;5.60;99.90;;;;;;5015406;28;20104;-67
2024/01/28 11:42:54;;;;;;;8.55;3.13;;;5.50;99.90;;;;;;5014494;28;20064;-67
2024/01/28 11:45:24;;;;;;;7.15;2.70;;;5.50;99.90;;;;;;5012975;28;20136;-66
2024/01/28 11:47:51;;;;;;;10.57;3.33;;;5.60;99.90;;;;;;5011694;28;20124;-67
2024/01/28 11:50:17;;;;;;;7.85;2.72;;;5.60;99.90;;;;;;5006151;28;20042;-67
2024/01/28 11:52:43;;;;;;;9.85;2.63;;;5.60;99.90;;;;;;5009081;28;20122;-66
2024/01/28 11:55:14;;;;;;;10.13;3.58;;;5.70;99.90;;;;;;5011178;28;20080;-66
2024/01/28 11:57:44;;;;;;;8.55;2.55;;;5.70;99.90;;;;;;5009846;28;20744;-67
2024/01/28 12:00:11;;;;;;;14.18;3.00;;;5.70;99.90;;;;;;4997389;28;20049;-66
2024/01/28 12:02:39;;;;;;;7.78;2.80;;;5.80;99.90;;;;;;5028480;28;20054;-66
2024/01/28 12:05:06;;;;;;;14.95;2.95;;;5.80;99.90;;;;;;5006078;28;20847;-65
2024/01/28 12:07:36;;;;;;;9.10;3.13;;;5.80;99.90;;;;;;5015495;28;20062;-66
2024/01/28 12:10:06;;;;;;;9.35;2.70;;;5.90;99.90;;;;;;5014939;28;20041;-66
2024/01/28 12:12:34;;;;;;;7.00;2.20;;;5.90;99.90;;;;;;5004514;28;20092;-66
2024/01/28 12:15:05;;;;;;;9.73;3.30;;;6.00;99.90;;;;;;5016900;28;20037;-66
2024/01/28 12:17:39;;;;;;;7.60;2.72;;;6.10;99.90;;;;;;4998251;28;20061;-66
2024/01/28 12:20:06;;;;;;;11.18;2.70;;;6.20;99.90;;;;;;5034498;28;20137;-66
2024/01/28 12:22:40;;;;;;;8.75;2.42;;;6.20;99.90;;;;;;5015341;28;20558;-66
2024/01/28 12:25:10;;;;;;;12.13;2.90;;;6.20;99.90;;;;;;5020663;28;20494;-66
2024/01/28 12:27:37;;;;;;;6.85;2.47;;;6.20;99.90;;;;;;5018770;28;20156;-66
2024/01/28 12:30:03;;;;;;;9.65;2.28;;;6.30;99.90;;;;;;5016237;28;20053;-67
2024/01/28 12:32:29;;;;;;;7.28;2.15;;;6.30;99.90;;;;;;5016864;28;20041;-66
2024/01/28 12:34:57;;;;;;;7.55;2.47;;;6.50;99.90;;;;;;5023120;28;20076;-67
2024/01/28 12:37:24;;;;;;;7.43;2.42;;;6.30;99.90;;;;;;5016655;28;20518;-67
2024/01/28 12:39:53;;;;;;;9.02;2.33;;;6.40;99.90;;;;;;5004137;28;20057;-67
2024/01/28 12:42:18;;;;;;;9.57;2.60;;;6.40;99.90;;;;;;5015873;28;20061;-65
2024/01/28 12:44:45;;;;;;;9.25;2.78;;;6.50;99.90;;;;;;5019308;28;20056;-66